createdAt,value
2022-11-15T00:00:29.141Z,18.93
2022-11-15T00:02:55.984Z,19.97
2022-11-15T00:05:22.554Z,19.67
2022-11-15T00:07:55.770Z,19.60
2022-11-15T00:10:22.616Z,19.47
2022-11-15T00:12:49.038Z,17.53
2022-11-15T00:15:15.512Z,19.30
2022-11-15T00:17:41.909Z,17.93
2022-11-15T00:20:08.918Z,18.70
2022-11-15T00:22:35.329Z,19.00
2022-11-15T00:25:01.708Z,17.83
2022-11-15T00:27:28.392Z,19.33
2022-11-15T00:29:54.808Z,18.57
2022-11-15T00:32:21.387Z,18.30
2022-11-15T00:34:47.782Z,19.37
2022-11-15T00:37:14.202Z,18.20
2022-11-15T00:39:40.587Z,18.80
2022-11-15T00:42:06.966Z,18.33
2022-11-15T00:44:33.364Z,17.77
2022-11-15T00:46:59.798Z,17.87
2022-11-15T00:49:26.173Z,18.40
2022-11-15T00:51:52.609Z,18.90
2022-11-15T00:54:19.007Z,19.20
2022-11-15T00:56:45.402Z,18.33
2022-11-15T00:59:11.791Z,18.63
2022-11-15T01:01:38.222Z,18.53
2022-11-15T01:04:04.763Z,17.03
2022-11-15T01:06:31.192Z,18.53
2022-11-15T01:08:57.569Z,17.50
2022-11-15T01:11:23.973Z,19.27
2022-11-15T01:13:50.371Z,18.30
2022-11-15T01:16:19.236Z,17.83
2022-11-15T01:18:46.600Z,18.93
2022-11-15T01:21:15.890Z,18.30
2022-11-15T01:23:42.461Z,18.20
2022-11-15T01:26:12.163Z,17.97
2022-11-15T01:28:39.527Z,17.20
2022-11-15T01:31:13.113Z,18.53
2022-11-15T01:33:39.607Z,18.37
2022-11-15T01:36:07.361Z,18.00
2022-11-15T01:38:34.160Z,18.07
2022-11-15T01:41:00.780Z,17.90
2022-11-15T01:43:32.838Z,17.77
2022-11-15T01:46:03.281Z,17.90
2022-11-15T01:48:33.575Z,18.10
2022-11-15T01:51:02.258Z,18.07
2022-11-15T01:53:31.235Z,18.43
2022-11-15T01:55:58.628Z,18.73
2022-11-15T01:58:25.222Z,18.67
2022-11-15T02:00:52.755Z,19.60
2022-11-15T02:03:19.460Z,19.23
2022-11-15T02:05:45.941Z,19.63
2022-11-15T02:08:20.718Z,18.63
2022-11-15T02:10:48.000Z,19.43
2022-11-15T02:13:16.189Z,18.03
2022-11-15T02:15:59.043Z,19.07
2022-11-15T02:18:33.731Z,19.63
2022-11-15T02:21:08.183Z,18.40
2022-11-15T02:23:54.205Z,18.33
2022-11-15T02:26:45.134Z,17.53
2022-11-15T02:29:15.627Z,17.40
2022-11-15T02:31:58.444Z,18.10
2022-11-15T02:34:34.133Z,16.33
2022-11-15T02:37:20.752Z,16.53
2022-11-15T02:39:52.865Z,17.40
2022-11-15T02:42:42.960Z,16.73
2022-11-15T02:45:11.248Z,16.33
2022-11-15T02:47:44.475Z,16.10
2022-11-15T02:50:17.572Z,16.93
2022-11-15T02:52:47.665Z,16.33
2022-11-15T02:55:35.973Z,15.33
2022-11-15T02:58:27.082Z,15.87
2022-11-15T03:01:14.827Z,16.13
2022-11-15T03:03:47.471Z,16.23
2022-11-15T03:06:39.961Z,16.17
2022-11-15T03:09:12.260Z,15.37
2022-11-15T03:11:42.736Z,15.43
2022-11-15T03:14:19.627Z,16.00
2022-11-15T03:16:52.446Z,15.33
2022-11-15T03:19:46.704Z,15.10
2022-11-15T03:22:19.058Z,15.97
2022-11-15T03:24:48.449Z,16.13
2022-11-15T03:27:18.973Z,15.93
2022-11-15T03:29:48.364Z,17.33
2022-11-15T03:32:20.497Z,16.57
2022-11-15T03:35:15.740Z,16.97
2022-11-15T03:37:55.673Z,16.17
2022-11-15T03:40:30.707Z,16.83
2022-11-15T03:43:05.715Z,15.37
2022-11-15T03:45:45.938Z,15.50
2022-11-15T03:48:15.976Z,14.63
2022-11-15T03:50:43.665Z,14.30
2022-11-15T03:53:10.441Z,14.67
2022-11-15T03:55:36.826Z,15.33
2022-11-15T03:58:03.270Z,15.00
2022-11-15T04:00:30.061Z,14.60
2022-11-15T04:02:56.822Z,16.10
2022-11-15T04:05:23.282Z,15.77
2022-11-15T04:07:49.712Z,14.77
2022-11-15T04:10:16.614Z,15.27
2022-11-15T04:12:44.883Z,15.73
2022-11-15T04:15:19.958Z,15.53
2022-11-15T04:17:57.215Z,14.97
2022-11-15T04:20:47.274Z,14.07
2022-11-15T04:23:40.055Z,14.00
2022-11-15T04:26:12.286Z,13.93
2022-11-15T04:28:57.811Z,14.40
2022-11-15T04:31:24.321Z,14.17
2022-11-15T04:33:50.866Z,14.03
2022-11-15T04:36:35.860Z,13.57
2022-11-15T04:39:02.305Z,14.30
2022-11-15T04:41:30.027Z,14.03
2022-11-15T04:43:56.494Z,13.93
2022-11-15T04:46:24.655Z,12.90
2022-11-15T04:48:56.944Z,13.53
2022-11-15T04:51:24.910Z,14.00
2022-11-15T04:53:51.337Z,14.80
2022-11-15T04:56:17.733Z,13.30
2022-11-15T04:58:44.202Z,13.97
2022-11-15T05:01:15.695Z,13.77
2022-11-15T05:04:01.280Z,13.13
2022-11-15T05:06:27.743Z,13.13
2022-11-15T05:08:54.477Z,14.30
2022-11-15T05:11:21.526Z,13.33
2022-11-15T05:13:47.956Z,13.40
2022-11-15T05:16:14.417Z,13.43
2022-11-15T05:18:41.655Z,12.83
2022-11-15T05:21:10.626Z,13.20
2022-11-15T05:23:37.170Z,12.93
2022-11-15T05:26:09.015Z,13.47
2022-11-15T05:28:37.302Z,13.43
2022-11-15T05:31:04.846Z,12.53
2022-11-15T05:33:32.078Z,12.77
2022-11-15T05:36:06.391Z,13.30
2022-11-15T05:38:32.796Z,12.53
2022-11-15T05:41:00.904Z,12.17
2022-11-15T05:43:28.268Z,13.23
2022-11-15T05:45:54.751Z,13.00
2022-11-15T05:48:21.186Z,13.07
2022-11-15T05:50:48.565Z,13.30
2022-11-15T05:53:17.189Z,12.00
2022-11-15T05:55:43.688Z,12.20
2022-11-15T05:58:10.391Z,11.73
2022-11-15T06:00:36.843Z,11.33
2022-11-15T06:03:03.326Z,11.87
2022-11-15T06:05:29.747Z,12.07
2022-11-15T06:07:59.949Z,12.17
2022-11-15T06:10:26.555Z,12.40
2022-11-15T06:13:03.065Z,12.23
2022-11-15T06:15:29.502Z,12.10
2022-11-15T06:18:00.048Z,12.07
2022-11-15T06:20:27.948Z,12.40
2022-11-15T06:23:02.427Z,11.17
2022-11-15T06:25:29.619Z,11.77
2022-11-15T06:27:57.654Z,12.37
2022-11-15T06:30:24.761Z,13.47
2022-11-15T06:32:51.174Z,12.33
2022-11-15T06:35:17.912Z,12.87
2022-11-15T06:37:44.395Z,12.57
2022-11-15T06:40:11.392Z,13.63
2022-11-15T06:42:37.785Z,12.07
2022-11-15T06:45:04.583Z,12.20
2022-11-15T06:47:31.075Z,12.10
2022-11-15T06:49:57.523Z,12.27
2022-11-15T06:52:23.951Z,12.43
2022-11-15T06:54:50.350Z,13.30
2022-11-15T06:57:16.727Z,11.83
2022-11-15T06:59:43.097Z,11.83
2022-11-15T07:02:15.838Z,12.80
2022-11-15T07:04:42.549Z,12.00
2022-11-15T07:07:09.292Z,13.13
2022-11-15T07:09:35.756Z,11.60
2022-11-15T07:12:07.317Z,12.83
2022-11-15T07:14:34.180Z,12.70
2022-11-15T07:17:00.642Z,12.50
2022-11-15T07:19:27.069Z,12.40
2022-11-15T07:21:53.476Z,12.00
2022-11-15T07:24:19.896Z,12.97
2022-11-15T07:26:46.326Z,12.40
2022-11-15T07:29:12.810Z,12.63
2022-11-15T07:31:39.891Z,13.63
2022-11-15T07:34:06.266Z,11.63
2022-11-15T07:36:32.666Z,12.67
2022-11-15T07:38:59.162Z,12.50
2022-11-15T07:41:25.579Z,13.20
2022-11-15T07:43:52.700Z,12.83
2022-11-15T07:46:19.364Z,12.63
2022-11-15T07:48:45.977Z,12.77
2022-11-15T07:51:14.932Z,13.07
2022-11-15T07:53:42.458Z,13.77
2022-11-15T07:56:09.058Z,12.73
2022-11-15T07:58:35.520Z,12.47
2022-11-15T08:01:10.515Z,12.63
2022-11-15T08:03:37.730Z,11.83
2022-11-15T08:06:04.736Z,12.13
2022-11-15T08:08:31.141Z,12.87
2022-11-15T08:11:00.792Z,12.80
2022-11-15T08:13:27.451Z,11.70
2022-11-15T08:15:58.777Z,13.20
2022-11-15T08:18:25.153Z,12.33
2022-11-15T08:20:51.562Z,12.37
2022-11-15T08:23:17.942Z,11.93
2022-11-15T08:25:44.582Z,11.10
2022-11-15T08:28:11.473Z,12.40
2022-11-15T08:30:39.757Z,11.30
2022-11-15T08:33:06.182Z,10.70
2022-11-15T08:35:32.840Z,10.93
2022-11-15T08:37:59.259Z,10.90
2022-11-15T08:40:25.865Z,10.67
2022-11-15T08:42:52.245Z,11.70
2022-11-15T08:45:18.739Z,12.63
2022-11-15T08:47:48.552Z,11.53
2022-11-15T08:50:19.320Z,10.67
2022-11-15T08:52:45.695Z,10.90
2022-11-15T08:55:12.111Z,10.40
2022-11-15T08:57:38.510Z,10.37
2022-11-15T09:00:05.343Z,10.80
2022-11-15T09:02:31.703Z,9.90
2022-11-15T09:04:58.244Z,10.40
2022-11-15T09:07:25.985Z,10.03
2022-11-15T09:09:52.432Z,10.63
2022-11-15T09:12:18.825Z,10.13
2022-11-15T09:14:45.234Z,9.87
2022-11-15T09:17:11.666Z,10.87
2022-11-15T09:19:38.521Z,9.47
2022-11-15T09:22:08.872Z,9.33
2022-11-15T09:24:36.008Z,10.00
2022-11-15T09:27:02.408Z,10.10
2022-11-15T09:29:28.833Z,10.57
2022-11-15T09:31:55.286Z,10.60
2022-11-15T09:34:21.987Z,10.77
2022-11-15T09:36:48.399Z,10.77
2022-11-15T09:39:14.911Z,10.93
2022-11-15T09:42:03.684Z,10.33
2022-11-15T09:44:39.151Z,9.30
2022-11-15T09:47:31.919Z,10.10
2022-11-15T09:50:00.612Z,9.33
2022-11-15T09:52:27.179Z,9.20
2022-11-15T09:54:55.736Z,8.47
2022-11-15T09:57:32.403Z,8.27
2022-11-15T10:00:52.702Z,8.90
2022-11-15T10:03:28.182Z,8.53
2022-11-15T10:05:57.912Z,9.07
2022-11-15T10:08:48.290Z,8.93
2022-11-15T10:11:39.997Z,8.30
2022-11-15T10:14:23.328Z,7.83
2022-11-15T10:17:19.473Z,7.77
2022-11-15T10:20:43.282Z,7.80
2022-11-15T10:23:13.172Z,7.03
2022-11-15T10:25:39.946Z,7.77
2022-11-15T10:28:16.741Z,7.60
2022-11-15T10:30:46.755Z,7.50
2022-11-15T10:33:21.058Z,6.83
2022-11-15T10:35:47.498Z,7.53
2022-11-15T10:38:14.250Z,6.77
2022-11-15T10:40:42.505Z,7.60
2022-11-15T10:43:11.931Z,7.30
2022-11-15T10:45:39.286Z,10.03
2022-11-15T10:48:14.748Z,12.50
2022-11-15T10:50:43.020Z,7.57
2022-11-15T10:53:20.382Z,7.33
2022-11-15T10:55:52.647Z,6.20
2022-11-15T10:58:38.484Z,6.23
2022-11-15T11:01:13.187Z,5.73
2022-11-15T11:03:41.229Z,6.33
2022-11-15T11:06:14.094Z,5.93
2022-11-15T11:08:41.421Z,6.07
2022-11-15T11:11:08.756Z,5.83
2022-11-15T11:13:38.049Z,5.83
2022-11-15T11:16:27.377Z,5.70
2022-11-15T11:19:05.938Z,5.47
2022-11-15T11:21:57.277Z,5.60
2022-11-15T11:25:02.118Z,5.20
2022-11-15T11:28:05.507Z,4.93
2022-11-15T11:31:00.113Z,4.83
2022-11-15T11:33:32.336Z,4.87
2022-11-15T11:36:36.176Z,5.10
2022-11-15T11:39:33.542Z,4.67
2022-11-15T11:42:05.946Z,4.77
2022-11-15T11:44:59.560Z,4.33
2022-11-15T11:47:34.637Z,4.67
2022-11-15T11:50:11.198Z,4.80
2022-11-15T11:52:44.622Z,4.40
2022-11-15T11:55:24.644Z,3.90
2022-11-15T11:58:09.742Z,3.90
2022-11-15T12:00:41.895Z,4.07
2022-11-15T12:03:22.417Z,4.00
2022-11-15T12:06:14.576Z,4.63
2022-11-15T12:08:54.460Z,4.10
2022-11-15T12:12:14.236Z,4.30
2022-11-15T12:14:59.974Z,4.13
2022-11-15T12:17:33.431Z,3.90
2022-11-15T12:20:05.979Z,3.60
2022-11-15T12:22:48.996Z,3.20
2022-11-15T12:25:20.014Z,3.57
2022-11-15T12:27:51.813Z,3.73
2022-11-15T12:30:20.735Z,3.50
2022-11-15T12:32:54.122Z,3.30
2022-11-15T12:35:39.731Z,3.30
2022-11-15T12:38:10.912Z,3.17
2022-11-15T12:41:16.055Z,3.03
2022-11-15T12:43:43.835Z,2.70
2022-11-15T12:46:34.100Z,2.40
2022-11-15T12:49:02.569Z,2.60
2022-11-15T12:51:44.528Z,2.63
2022-11-15T12:54:22.982Z,2.57
2022-11-15T12:57:04.625Z,2.90
2022-11-15T12:59:49.868Z,2.67
2022-11-15T13:02:27.191Z,3.00
2022-11-15T13:04:56.204Z,3.00
2022-11-15T13:07:40.969Z,2.97
2022-11-15T13:10:28.313Z,2.73
2022-11-15T13:13:43.363Z,3.13
2022-11-15T13:16:09.836Z,2.60
2022-11-15T13:18:39.042Z,2.93
2022-11-15T13:21:38.992Z,2.70
2022-11-15T13:24:05.950Z,2.50
2022-11-15T13:26:32.614Z,2.53
2022-11-15T13:29:00.435Z,2.30
2022-11-15T13:31:41.560Z,2.00
2022-11-15T13:34:44.040Z,1.80
2022-11-15T13:37:04.166Z,1.80
2022-11-15T13:39:31.974Z,1.60
2022-11-15T13:41:59.105Z,1.80
2022-11-15T13:44:32.068Z,1.60
2022-11-15T13:47:20.265Z,1.60
2022-11-15T13:49:46.942Z,1.60
2022-11-15T13:52:17.921Z,1.67
2022-11-15T13:54:52.905Z,1.50
2022-11-15T13:57:28.805Z,1.70
2022-11-15T13:59:56.131Z,1.37
2022-11-15T14:02:27.876Z,1.53
2022-11-15T14:04:56.803Z,1.60
2022-11-15T14:07:25.787Z,1.50
2022-11-15T14:09:52.660Z,1.53
2022-11-15T14:12:27.055Z,1.30
2022-11-15T14:14:53.787Z,1.47
2022-11-15T14:17:30.553Z,1.53
2022-11-15T14:19:58.125Z,1.53
2022-11-15T14:22:27.026Z,1.40
2022-11-15T14:25:08.856Z,1.50
2022-11-15T14:27:35.652Z,1.60
2022-11-15T14:30:02.322Z,1.60
2022-11-15T14:32:30.623Z,1.37
2022-11-15T14:34:58.085Z,1.53
2022-11-15T14:37:35.708Z,1.37
2022-11-15T14:40:04.136Z,1.40
2022-11-15T14:42:30.581Z,1.30
2022-11-15T14:44:58.393Z,1.40
2022-11-15T14:47:26.156Z,1.20
2022-11-15T14:49:53.607Z,1.43
2022-11-15T14:52:38.042Z,1.30
2022-11-15T14:55:18.468Z,1.40
2022-11-15T14:57:46.066Z,1.50
2022-11-15T15:00:16.205Z,1.73
2022-11-15T15:02:44.787Z,1.50
2022-11-15T15:05:20.139Z,1.67
2022-11-15T15:07:47.237Z,1.40
2022-11-15T15:10:38.865Z,1.70
2022-11-15T15:13:01.721Z,1.87
2022-11-15T15:15:34.137Z,1.83
2022-11-15T15:18:00.873Z,1.60
2022-11-15T15:20:28.247Z,1.53
2022-11-15T15:22:54.668Z,1.97
2022-11-15T15:25:28.562Z,1.73
2022-11-15T15:27:56.006Z,2.70
2022-11-15T15:30:27.241Z,2.20
2022-11-15T15:32:54.893Z,2.43
2022-11-15T15:35:21.771Z,3.30
2022-11-15T15:37:49.467Z,2.77
2022-11-15T15:40:25.766Z,3.13
2022-11-15T15:42:52.301Z,2.80
2022-11-15T15:45:19.839Z,3.43
2022-11-15T15:47:47.040Z,3.03
2022-11-15T15:50:29.748Z,3.50
2022-11-15T15:52:57.937Z,3.30
2022-11-15T15:55:25.051Z,3.50
2022-11-15T15:57:51.607Z,3.77
2022-11-15T16:00:18.944Z,4.07
2022-11-15T16:02:45.976Z,3.93
2022-11-15T16:05:14.259Z,4.20
2022-11-15T16:07:41.478Z,4.43
2022-11-15T16:10:28.576Z,3.93
2022-11-15T16:12:56.661Z,4.40
2022-11-15T16:15:25.181Z,3.73
2022-11-15T16:17:59.792Z,3.90
2022-11-15T16:20:40.358Z,4.20
2022-11-15T16:23:09.707Z,4.80
2022-11-15T16:25:41.687Z,5.00
2022-11-15T16:28:32.027Z,5.07
2022-11-15T16:31:04.326Z,4.40
2022-11-15T16:33:31.388Z,4.57
2022-11-15T16:35:58.135Z,4.10
2022-11-15T16:38:24.818Z,4.20
2022-11-15T16:40:51.210Z,4.40
2022-11-15T16:43:17.800Z,4.27
2022-11-15T16:45:44.389Z,4.93
2022-11-15T16:48:25.111Z,4.30
2022-11-15T16:50:57.326Z,4.27
2022-11-15T16:53:24.898Z,4.90
2022-11-15T16:55:51.345Z,5.30
2022-11-15T16:58:17.822Z,4.20
2022-11-15T17:00:44.349Z,4.90
2022-11-15T17:03:10.904Z,4.60
2022-11-15T17:05:37.413Z,4.03
2022-11-15T17:08:03.807Z,4.60
2022-11-15T17:10:30.225Z,4.63
2022-11-15T17:12:56.648Z,3.90
2022-11-15T17:15:24.448Z,4.23
2022-11-15T17:17:54.815Z,4.30
2022-11-15T17:20:23.904Z,4.67
2022-11-15T17:22:50.849Z,4.40
2022-11-15T17:25:17.396Z,4.63
2022-11-15T17:27:43.824Z,4.10
2022-11-15T17:30:12.643Z,5.57
2022-11-15T17:32:39.115Z,4.60
2022-11-15T17:35:13.859Z,4.30
2022-11-15T17:37:42.195Z,5.00
2022-11-15T17:40:09.066Z,4.50
2022-11-15T17:42:35.550Z,4.53
2022-11-15T17:47:29.636Z,4.40
2022-11-15T17:49:56.047Z,5.87
2022-11-15T17:52:22.501Z,5.67
2022-11-15T17:54:48.862Z,12.57
2022-11-15T17:57:15.342Z,4.87
2022-11-15T17:59:41.807Z,4.40
2022-11-15T18:02:09.599Z,4.57
2022-11-15T18:04:35.999Z,4.33
2022-11-15T18:07:02.415Z,5.33
2022-11-15T18:09:28.924Z,4.83
2022-11-15T18:11:55.333Z,4.20
2022-11-15T18:14:21.797Z,4.97
2022-11-15T18:16:48.231Z,6.70
2022-11-15T18:19:15.150Z,4.80
2022-11-15T18:22:04.309Z,4.70
2022-11-15T18:24:30.732Z,5.30
2022-11-15T18:26:58.240Z,9.97
2022-11-15T18:29:24.945Z,6.47
2022-11-15T18:31:55.484Z,5.33
2022-11-15T18:34:23.465Z,5.13
2022-11-15T18:36:51.610Z,4.70
2022-11-15T18:39:18.574Z,4.67
2022-11-15T18:41:46.502Z,5.87
2022-11-15T18:44:15.643Z,5.43
2022-11-15T18:46:42.727Z,6.93
2022-11-15T18:49:12.643Z,9.47
2022-11-15T18:51:41.915Z,7.97
2022-11-15T18:54:13.352Z,5.93
2022-11-15T18:56:40.247Z,5.17
2022-11-15T18:59:08.301Z,5.07
2022-11-15T19:01:37.093Z,5.20
2022-11-15T19:04:08.268Z,5.07
2022-11-15T19:06:38.927Z,4.50
2022-11-15T19:09:06.167Z,4.80
2022-11-15T19:11:35.714Z,12.57
2022-11-15T19:14:04.574Z,27.70
2022-11-15T19:16:33.503Z,5.77
2022-11-15T19:19:02.242Z,5.13
2022-11-15T19:21:30.928Z,5.10
2022-11-15T19:23:58.026Z,4.93
2022-11-15T19:26:25.062Z,5.33
2022-11-15T19:28:56.295Z,4.80
2022-11-15T19:31:26.242Z,5.77
2022-11-15T19:33:53.574Z,6.43
2022-11-15T19:36:23.181Z,6.47
2022-11-15T19:38:49.856Z,6.13
2022-11-15T19:41:18.508Z,6.13
2022-11-15T19:43:47.924Z,6.70
2022-11-15T19:46:14.937Z,9.20
2022-11-15T19:48:41.712Z,7.50
2022-11-15T19:51:16.196Z,6.73
2022-11-15T19:53:43.270Z,6.40
2022-11-15T19:56:14.639Z,5.67
2022-11-15T19:58:41.416Z,5.53
2022-11-15T20:01:12.844Z,4.90
2022-11-15T20:03:39.393Z,5.13
2022-11-15T20:06:08.155Z,5.27
2022-11-15T20:08:35.205Z,6.73
2022-11-15T20:11:02.920Z,5.30
2022-11-15T20:13:29.426Z,5.30
2022-11-15T20:15:56.551Z,4.50
2022-11-15T20:18:24.078Z,5.80
2022-11-15T20:20:50.736Z,5.70
2022-11-15T20:23:17.510Z,6.37
2022-11-15T20:25:46.039Z,5.63
2022-11-15T20:28:21.023Z,5.57
2022-11-15T20:30:48.350Z,5.57
2022-11-15T20:33:14.970Z,5.03
2022-11-15T20:35:41.468Z,5.27
2022-11-15T20:38:08.195Z,4.80
2022-11-15T20:40:34.973Z,5.80
2022-11-15T20:43:01.383Z,5.37
2022-11-15T20:45:27.790Z,5.07
2022-11-15T20:47:58.285Z,6.03
2022-11-15T20:50:42.157Z,5.50
2022-11-15T20:53:11.192Z,5.57
2022-11-15T20:55:47.686Z,4.90
2022-11-15T20:58:15.262Z,5.20
2022-11-15T21:00:43.199Z,5.40
2022-11-15T21:03:09.843Z,5.77
2022-11-15T21:05:40.791Z,5.40
2022-11-15T21:08:07.728Z,5.93
2022-11-15T21:10:52.831Z,5.97
2022-11-15T21:13:19.347Z,5.37
2022-11-15T21:15:45.991Z,5.33
2022-11-15T21:18:12.962Z,6.30
2022-11-15T21:20:39.514Z,6.43
2022-11-15T21:23:05.962Z,6.00
2022-11-15T21:25:35.733Z,5.67
2022-11-15T21:28:02.840Z,5.87
2022-11-15T21:30:29.264Z,7.03
2022-11-15T21:32:55.821Z,4.77
2022-11-15T21:35:22.633Z,5.23
2022-11-15T21:37:54.961Z,5.60
2022-11-15T21:40:23.054Z,5.53
2022-11-15T21:42:49.485Z,5.80
2022-11-15T21:45:15.930Z,5.73
2022-11-15T21:47:46.037Z,6.07
2022-11-15T21:50:13.397Z,5.53
2022-11-15T21:52:40.887Z,5.77
2022-11-15T21:55:08.145Z,5.43
2022-11-15T21:57:34.552Z,5.57
2022-11-15T22:00:27.231Z,5.70
2022-11-15T22:02:53.667Z,5.97
2022-11-15T22:05:20.355Z,5.90
2022-11-15T22:07:46.776Z,5.60
2022-11-15T22:10:13.232Z,5.53
2022-11-15T22:12:40.004Z,5.33
2022-11-15T22:15:07.045Z,5.93
2022-11-15T22:17:52.118Z,4.97
2022-11-15T22:23:05.636Z,5.23
2022-11-15T22:25:32.512Z,5.53
2022-11-15T22:27:58.927Z,6.07
2022-11-15T22:30:25.349Z,5.50
2022-11-15T22:32:51.788Z,5.17
2022-11-15T22:35:18.383Z,5.23
2022-11-15T22:37:44.789Z,5.20
2022-11-15T22:40:11.275Z,5.40
2022-11-15T22:42:37.963Z,5.53
2022-11-15T22:45:04.787Z,5.73
2022-11-15T22:47:31.438Z,5.37
2022-11-15T22:49:57.907Z,5.30
2022-11-15T22:52:24.532Z,4.83
2022-11-15T22:54:51.206Z,6.00
2022-11-15T22:57:17.838Z,5.57
2022-11-15T22:59:44.355Z,5.03
2022-11-15T23:02:10.744Z,5.10
2022-11-15T23:04:37.481Z,5.30
2022-11-15T23:07:04.164Z,5.27
2022-11-15T23:09:30.638Z,5.00
2022-11-15T23:12:15.659Z,5.10
2022-11-15T23:14:42.104Z,5.60
2022-11-15T23:17:08.499Z,5.40
2022-11-15T23:19:35.058Z,5.37
2022-11-15T23:22:20.003Z,5.80
2022-11-15T23:24:46.468Z,5.17
2022-11-15T23:27:15.559Z,5.47
2022-11-15T23:30:13.993Z,5.40
2022-11-15T23:32:59.137Z,5.40
2022-11-15T23:35:26.041Z,5.43
2022-11-15T23:37:52.458Z,5.27
2022-11-15T23:40:19.221Z,5.20
2022-11-15T23:42:45.627Z,5.30
2022-11-15T23:45:12.102Z,5.30
2022-11-15T23:47:38.508Z,5.80
2022-11-15T23:50:05.250Z,5.33
2022-11-15T23:52:31.822Z,4.90
2022-11-15T23:54:58.285Z,4.93
2022-11-15T23:57:24.716Z,4.73
2022-11-15T23:59:51.181Z,4.77
